Time;durP1;ratioP1;P1;durP2;ratioP2;P2;SDS_P1;SDS_P2;PMS_P1;PMS_P2;Temp;Humidity;BMP_temperature;BMP_pressure;BME280_temperature;BME280_humidity;BME280_pressure;Samples;Min_cycle;Max_cycle;Signal;HPM_P1;HPM_P2
2022/01/24 00:01:25;;;;;;;1.02;0.45;;;5.80;99.90;;;;;;5019398;28;20053;-90
2022/01/24 00:03:57;;;;;;;0.10;0.10;;;5.80;99.90;;;;;;5019445;28;20060;-90
2022/01/24 00:06:24;;;;;;;0.05;0.03;;;6.00;99.90;;;;;;5019450;28;20465;-90
2022/01/24 00:08:50;;;;;;;0.17;0.00;;;5.80;99.90;;;;;;5035848;28;20184;-90
2022/01/24 00:11:20;;;;;;;0.00;0.00;;;6.10;99.90;;;;;;5035291;28;20128;-90
2022/01/24 00:16:46;;;;;;;0.00;0.00;;;5.90;99.90;;;;;;5036077;28;20512;-89
2022/01/24 00:27:08;;;;;;;0.00;0.00;;;6.00;99.90;;;;;;5035746;28;20059;-89
2022/01/24 00:29:34;;;;;;;0.10;0.00;;;5.90;99.90;;;;;;5018134;28;20042;-89
2022/01/24 00:32:00;;;;;;;0.70;0.25;;;5.80;99.90;;;;;;5035065;28;20041;-89
2022/01/24 00:34:26;;;;;;;0.25;0.25;;;6.00;99.90;;;;;;5035295;28;20095;-89
2022/01/24 00:36:52;;;;;;;0.00;0.00;;;6.00;99.90;;;;;;5018470;28;20049;-89
2022/01/24 00:39:20;;;;;;;0.00;0.00;;;5.80;99.90;;;;;;5018037;28;20045;-89
2022/01/24 00:42:08;;;;;;;0.00;0.00;;;5.80;99.90;;;;;;5018437;28;20091;-90
2022/01/24 00:47:14;;;;;;;0.00;0.00;;;5.90;99.90;;;;;;5035652;28;20363;-89
2022/01/24 00:49:53;;;;;;;0.00;0.00;;;5.80;99.90;;;;;;5018660;28;20383;-90
2022/01/24 00:55:05;;;;;;;0.00;0.00;;;5.80;99.90;;;;;;5034675;28;20489;-89
2022/01/24 00:57:31;;;;;;;0.20;0.20;;;5.80;99.90;;;;;;5018058;28;20132;-90
2022/01/24 00:59:57;;;;;;;1.25;0.43;;;5.80;99.90;;;;;;5017848;28;20136;-90
2022/01/24 01:02:23;;;;;;;0.00;0.00;;;5.80;99.90;;;;;;5017819;28;20057;-90
2022/01/24 01:07:31;;;;;;;0.17;0.17;;;5.80;99.90;;;;;;5034385;28;20045;-90
2022/01/24 01:20:54;;;;;;;1.33;0.15;;;5.80;99.90;;;;;;5034034;28;20144;-89
2022/01/24 01:23:20;;;;;;;;;;;5.80;99.90;;;;;;5017801;28;20061;-90
2022/01/24 01:25:47;;;;;;;3.50;0.57;;;5.80;99.90;;;;;;5034413;28;19927;-90
2022/01/24 01:28:14;;;;;;;0.00;0.00;;;5.80;99.90;;;;;;5018101;28;20081;-89
2022/01/24 01:30:45;;;;;;;0.00;0.00;;;5.80;99.90;;;;;;5017394;28;20045;-89
2022/01/24 01:35:56;;;;;;;0.00;0.00;;;6.10;99.90;;;;;;5033781;28;20045;-90
2022/01/24 01:53:15;;;;;;;0.00;0.00;;;5.80;99.90;;;;;;4958223;28;20094;-90
2022/01/24 01:55:40;;;;;;;0.00;0.00;;;5.80;99.90;;;;;;4956644;28;20091;-89
2022/01/24 01:58:09;;;;;;;0.68;0.00;;;5.70;99.90;;;;;;4957980;28;20086;-90
2022/01/24 02:00:38;;;;;;;0.10;0.10;;;5.60;99.90;;;;;;4941927;28;20046;-88
2022/01/24 02:03:04;;;;;;;0.00;0.00;;;5.70;99.90;;;;;;4941643;28;20038;-90
2022/01/24 02:05:30;;;;;;;0.55;0.25;;;5.70;99.90;;;;;;4957666;28;20138;-90
2022/01/24 02:07:56;;;;;;;0.00;0.00;;;5.70;99.90;;;;;;4941819;28;20054;-90
2022/01/24 02:10:23;;;;;;;0.05;0.05;;;5.60;99.90;;;;;;4941088;28;20051;-90
2022/01/24 02:12:51;;;;;;;0.00;0.00;;;5.80;99.90;;;;;;4941250;28;20043;-89
2022/01/24 02:15:33;;;;;;;0.00;0.00;;;5.80;99.90;;;;;;4957416;28;20050;-90
2022/01/24 02:25:55;;;;;;;0.00;0.00;;;5.80;99.90;;;;;;5033679;28;20050;-90
2022/01/24 02:28:23;;;;;;;0.03;0.03;;;5.90;99.90;;;;;;5032900;28;20148;-90
2022/01/24 02:33:25;;;;;;;0.00;0.00;;;5.70;99.90;;;;;;5033133;28;20045;-90
2022/01/24 02:35:54;;;;;;;0.00;0.00;;;6.20;99.90;;;;;;5016016;28;20489;-89
2022/01/24 02:38:37;;;;;;;0.00;0.00;;;5.70;99.90;;;;;;5032808;28;20052;-89
2022/01/24 02:49:36;;;;;;;0.10;0.10;;;5.90;99.90;;;;;;5033028;28;20052;-89
2022/01/24 02:52:05;;;;;;;0.10;0.10;;;5.70;99.90;;;;;;5033186;28;20409;-90
2022/01/24 02:54:32;;;;;;;0.40;0.40;;;5.70;99.90;;;;;;5020304;28;20049;-90
2022/01/24 02:56:59;;;;;;;0.00;0.00;;;5.70;99.90;;;;;;5036780;28;20041;-90
2022/01/24 02:59:25;;;;;;;0.00;0.00;;;5.80;99.90;;;;;;5036764;28;20123;-89
2022/01/24 03:01:51;;;;;;;0.00;0.00;;;5.90;99.90;;;;;;5020354;28;20053;-90
2022/01/24 03:04:17;;;;;;;0.00;0.00;;;5.80;99.90;;;;;;5019982;28;20048;-89
2022/01/24 03:06:43;;;;;;;1.25;0.57;;;5.90;99.90;;;;;;5019617;28;20041;-89
2022/01/24 03:09:13;;;;;;;0.00;0.00;;;5.70;99.90;;;;;;5020501;28;20376;-90
2022/01/24 03:12:04;;;;;;;0.00;0.00;;;5.70;99.90;;;;;;5020336;28;20397;-90
2022/01/24 03:14:33;;;;;;;0.10;0.00;;;5.70;99.90;;;;;;5037168;28;20041;-90
2022/01/24 03:17:00;;;;;;;0.00;0.00;;;5.70;99.90;;;;;;5020818;28;20045;-89
2022/01/24 03:19:26;;;;;;;0.10;0.10;;;5.70;99.90;;;;;;5036312;28;20501;-90
2022/01/24 03:21:52;;;;;;;0.00;0.00;;;5.60;99.90;;;;;;5019454;28;20089;-90
2022/01/24 03:24:18;;;;;;;0.10;0.10;;;5.50;99.90;;;;;;5035944;28;20064;-90
2022/01/24 03:26:44;;;;;;;0.55;0.28;;;5.70;99.90;;;;;;5036312;28;20049;-90
2022/01/24 03:29:13;;;;;;;0.00;0.00;;;5.70;99.90;;;;;;5036152;28;20057;-90
2022/01/24 03:31:40;;;;;;;0.10;0.00;;;6.20;99.90;;;;;;5037131;28;20490;-90
2022/01/24 03:34:06;;;;;;;0.00;0.00;;;6.30;99.90;;;;;;5019553;28;20049;-89
2022/01/24 03:36:32;;;;;;;0.10;0.10;;;5.60;99.90;;;;;;5019996;28;20408;-89
2022/01/24 03:38:58;;;;;;;0.10;0.10;;;5.70;99.90;;;;;;5019754;28;20404;-89
2022/01/24 03:41:24;;;;;;;0.00;0.00;;;5.60;99.90;;;;;;5019531;28;20046;-90
2022/01/24 03:43:50;;;;;;;0.00;0.00;;;5.60;99.90;;;;;;5036034;28;20045;-89
2022/01/24 03:48:50;;;;;;;0.05;0.05;;;5.60;99.90;;;;;;5035675;28;20049;-89
2022/01/24 03:51:16;;;;;;;0.15;0.10;;;5.60;99.90;;;;;;5019011;28;20044;-89
2022/01/24 03:53:43;;;;;;;0.00;0.00;;;5.60;99.90;;;;;;5036310;28;20048;-89
2022/01/24 03:56:10;;;;;;;0.22;0.00;;;5.60;99.90;;;;;;5019373;28;20046;-89
2022/01/24 03:58:39;;;;;;;0.15;0.10;;;5.70;99.90;;;;;;5019159;28;20045;-90
2022/01/24 04:01:08;;;;;;;0.38;0.20;;;5.70;99.90;;;;;;5019031;28;20045;-90
2022/01/24 04:03:34;;;;;;;4.50;0.10;;;5.40;99.90;;;;;;5017945;28;20452;-90
2022/01/24 04:06:01;;;;;;;0.70;0.30;;;5.60;99.90;;;;;;5019059;28;20106;-89
2022/01/24 04:08:26;;;;;;;0.30;0.20;;;5.60;99.90;;;;;;5036649;28;20379;-89
2022/01/24 04:10:55;;;;;;;3.05;0.50;;;5.60;99.90;;;;;;5019475;28;20041;-90
2022/01/24 04:23:39;;;;;;;0.50;0.47;;;5.50;99.90;;;;;;5035277;28;20474;-90
2022/01/24 04:26:04;;;;;;;0.88;0.88;;;5.70;99.90;;;;;;5035149;28;20049;-90
2022/01/24 04:28:30;;;;;;;0.10;0.10;;;5.60;99.90;;;;;;5019077;28;20045;-89
2022/01/24 04:30:58;;;;;;;0.03;0.03;;;5.60;99.90;;;;;;5018516;28;20073;-89
2022/01/24 04:33:24;;;;;;;0.73;0.28;;;5.50;99.90;;;;;;5018886;28;20185;-89
2022/01/24 04:35:50;;;;;;;0.10;0.10;;;6.00;99.90;;;;;;5019406;28;20041;-89
2022/01/24 04:38:17;;;;;;;2.92;0.82;;;5.50;99.90;;;;;;5019482;28;20045;-90
2022/01/24 04:40:45;;;;;;;0.63;0.63;;;5.50;99.90;;;;;;5035482;28;20490;-89
2022/01/24 04:43:32;;;;;;;0.28;0.20;;;5.60;99.90;;;;;;5019607;28;20390;-89
2022/01/24 04:46:06;;;;;;;0.17;0.17;;;5.50;99.90;;;;;;5019301;28;20091;-90
2022/01/24 04:54:15;;;;;;;;;;;5.60;99.90;;;;;;5036067;28;20084;-90
2022/01/24 04:56:38;;;;;;;;;;;5.50;99.90;;;;;;5034465;28;19921;-89
2022/01/24 04:59:05;;;;;;;;;;;5.40;99.90;;;;;;5035290;28;20311;-90
2022/01/24 05:01:30;;;;;;;;;;;5.40;99.90;;;;;;5035136;28;19925;-89
2022/01/24 05:03:56;;;;;;;;;;;5.40;99.90;;;;;;5035222;28;19971;-89
2022/01/24 05:06:22;;;;;;;;;;;5.40;99.90;;;;;;5035054;28;20276;-89
2022/01/24 05:08:47;;;;;;;;;;;5.50;99.90;;;;;;5035404;28;20000;-89
2022/01/24 05:11:25;;;;;;;;;;;5.40;99.90;;;;;;5034273;28;20368;-89
2022/01/24 05:24:45;;;;;;;;;;;5.40;99.90;;;;;;4993741;28;19926;-89
2022/01/24 05:27:11;;;;;;;;;;;5.40;99.90;;;;;;4977978;28;19921;-89
2022/01/24 05:29:36;;;;;;;;;;;6.20;99.90;;;;;;4962168;28;19964;-89
2022/01/24 05:32:02;;;;;;;;;;;5.40;99.90;;;;;;4961737;28;19925;-89
2022/01/24 05:34:28;;;;;;;;;;;5.40;99.90;;;;;;4977849;28;19932;-89
2022/01/24 05:36:54;;;;;;;;;;;5.90;99.90;;;;;;4961846;28;19922;-89
2022/01/24 05:39:19;;;;;;;;;;;5.60;99.90;;;;;;4962511;28;19928;-89
2022/01/24 05:41:45;;;;;;;;;;;5.50;99.90;;;;;;4962439;28;20025;-89
2022/01/24 05:44:11;;;;;;;;;;;5.80;99.90;;;;;;4978770;28;19926;-89
2022/01/24 05:46:36;;;;;;;;;;;5.60;99.90;;;;;;4978000;28;19972;-89
2022/01/24 05:49:02;;;;;;;;;;;5.50;99.90;;;;;;4977756;28;20451;-89
2022/01/24 05:51:29;;;;;;;;;;;5.40;99.90;;;;;;4977113;28;20016;-89
2022/01/24 05:53:55;;;;;;;;;;;5.50;99.90;;;;;;4962183;28;20305;-89
2022/01/24 05:56:23;;;;;;;;;;;5.40;99.90;;;;;;4977472;28;19921;-89
2022/01/24 05:58:49;;;;;;;;;;;5.40;99.90;;;;;;4993395;28;19964;-89
2022/01/24 06:01:14;;;;;;;;;;;5.60;99.90;;;;;;5033984;28;20033;-89
2022/01/24 06:03:40;;;;;;;;;;;5.60;99.90;;;;;;5034343;28;19921;-90
2022/01/24 06:06:08;;;;;;;;;;;5.70;99.90;;;;;;5033697;28;20015;-89
2022/01/24 06:08:34;;;;;;;;;;;5.40;99.90;;;;;;5034016;28;19928;-89
2022/01/24 06:10:59;;;;;;;;;;;5.40;99.90;;;;;;5033808;28;19921;-88
2022/01/24 06:13:26;;;;;;;;;;;5.60;99.90;;;;;;5033840;28;19935;-90
2022/01/24 06:15:51;;;;;;;;;;;5.30;99.90;;;;;;5033871;28;20364;-89
2022/01/24 06:18:17;;;;;;;;;;;5.40;99.90;;;;;;5033678;28;19920;-89
2022/01/24 06:20:43;;;;;;;;;;;5.30;99.90;;;;;;5033116;28;19971;-89
2022/01/24 06:23:13;;;;;;;;;;;5.40;99.90;;;;;;5034043;28;19928;-89
2022/01/24 06:25:39;;;;;;;;;;;5.30;99.90;;;;;;5034029;28;19921;-89
2022/01/24 06:28:04;;;;;;;;;;;5.30;99.90;;;;;;5034559;28;19947;-89
2022/01/24 06:30:30;;;;;;;;;;;5.30;99.90;;;;;;5033998;28;19971;-89
2022/01/24 06:32:55;;;;;;;;;;;5.30;99.90;;;;;;5034966;28;20016;-89
2022/01/24 06:35:21;;;;;;;;;;;5.40;99.90;;;;;;5033501;28;19983;-89
2022/01/24 06:37:47;;;;;;;;;;;5.40;99.90;;;;;;5034558;28;19967;-89
2022/01/24 06:40:12;;;;;;;;;;;5.30;99.90;;;;;;5034654;28;19921;-89
2022/01/24 06:42:38;;;;;;;;;;;5.40;99.90;;;;;;5034401;28;19925;-90
2022/01/24 06:45:07;;;;;;;;;;;5.30;99.90;;;;;;5034185;28;19921;-90
2022/01/24 06:47:32;;;;;;;;;;;5.30;99.90;;;;;;5034234;28;20011;-90
2022/01/24 06:49:58;;;;;;;;;;;5.60;99.90;;;;;;5017516;28;20067;-90
2022/01/24 06:52:23;;;;;;;;;;;5.50;99.90;;;;;;5016769;28;19928;-90
2022/01/24 06:54:49;;;;;;;;;;;5.40;99.90;;;;;;5033548;28;19921;-90
2022/01/24 06:57:17;;;;;;;;;;;5.30;99.90;;;;;;5017546;28;19921;-90
2022/01/24 06:59:45;;;;;;;;;;;5.50;99.90;;;;;;5032785;28;19967;-90
2022/01/24 07:02:11;;;;;;;;;;;5.30;99.90;;;;;;5033298;28;20011;-90
2022/01/24 07:04:39;;;;;;;;;;;5.60;99.90;;;;;;5016937;28;20292;-90
2022/01/24 07:07:08;;;;;;;;;;;5.40;99.90;;;;;;5034487;28;19943;-90
2022/01/24 07:09:34;;;;;;;;;;;5.30;99.90;;;;;;5034187;28;19921;-91
2022/01/24 07:12:00;;;;;;;;;;;5.30;99.90;;;;;;5034525;28;19921;-90
2022/01/24 07:14:25;;;;;;;;;;;6.00;99.90;;;;;;5034343;28;19944;-90
2022/01/24 07:19:26;;;;;;;;;;;5.30;99.90;;;;;;5018282;28;19921;-91
2022/01/24 07:21:52;;;;;;;;;;;5.30;99.90;;;;;;5033723;28;19927;-90
2022/01/24 07:24:18;;;;;;;;;;;5.30;99.90;;;;;;5017279;28;19931;-89
2022/01/24 07:26:44;;;;;;;;;;;5.30;99.90;;;;;;5033945;28;19921;-90
2022/01/24 07:29:09;;;;;;;;;;;5.30;99.90;;;;;;5034040;28;19925;-90
2022/01/24 07:31:35;;;;;;;;;;;5.30;99.90;;;;;;5033626;28;20373;-90
2022/01/24 07:34:00;;;;;;;;;;;5.30;99.90;;;;;;5033946;28;20412;-90
2022/01/24 07:36:26;;;;;;;;;;;5.30;99.90;;;;;;5017195;28;19928;-91
2022/01/24 07:38:52;;;;;;;;;;;5.30;99.90;;;;;;5035120;28;19921;-90
2022/01/24 07:41:24;;;;;;;;;;;5.30;99.90;;;;;;5037534;28;20397;-89
2022/01/24 07:43:50;;;;;;;;;;;5.50;99.90;;;;;;5037394;28;20241;-93
2022/01/24 07:46:24;;;;;;;;;;;5.20;99.90;;;;;;5056654;28;20272;-92
2022/01/24 07:48:50;;;;;;;;;;;5.70;99.90;;;;;;5040027;28;19921;-92
2022/01/24 07:51:15;;;;;;;;;;;5.40;99.90;;;;;;5056282;28;20023;-92
2022/01/24 07:53:44;;;;;;;;;;;5.30;99.90;;;;;;5056683;28;19920;-92
2022/01/24 07:56:10;;;;;;;;;;;5.30;99.90;;;;;;5050458;28;19921;-90
2022/01/24 07:58:35;;;;;;;;;;;5.60;99.90;;;;;;5039431;28;19928;-91
2022/01/24 08:01:01;;;;;;;;;;;5.40;99.90;;;;;;5039885;28;19935;-92
2022/01/24 08:03:27;;;;;;;;;;;5.30;99.90;;;;;;5050887;28;19975;-92
2022/01/24 08:05:53;;;;;;;;;;;5.40;99.90;;;;;;5039922;28;20535;-92
2022/01/24 08:08:18;;;;;;;;;;;5.90;99.90;;;;;;5039349;28;19925;-93
2022/01/24 08:10:44;;;;;;;;;;;6.00;99.90;;;;;;5039779;28;20352;-92
2022/01/24 08:13:10;;;;;;;;;;;5.40;99.90;;;;;;5039767;28;19928;-92
2022/01/24 08:15:35;;;;;;;;;;;5.40;99.90;;;;;;5039598;28;19928;-91
2022/01/24 08:18:01;;;;;;;;;;;5.90;99.90;;;;;;5056161;28;19924;-89
2022/01/24 08:20:27;;;;;;;;;;;5.40;99.90;;;;;;5039699;28;19927;-88
2022/01/24 08:22:52;;;;;;;;;;;5.70;99.90;;;;;;5055775;28;19927;-88
2022/01/24 08:25:18;;;;;;;;;;;6.00;99.90;;;;;;5055325;28;19932;-89
2022/01/24 08:27:46;;;;;;;;;;;5.50;99.90;;;;;;5055401;28;19920;-88
2022/01/24 08:30:15;;;;;;;;;;;5.50;99.90;;;;;;5054601;28;19927;-89
2022/01/24 08:32:41;;;;;;;;;;;5.50;99.90;;;;;;5038745;28;19921;-89
2022/01/24 08:35:07;;;;;;;;;;;5.50;99.90;;;;;;5055465;28;19920;-90
2022/01/24 08:37:33;;;;;;;;;;;5.50;99.90;;;;;;5055242;28;19920;-89
2022/01/24 08:39:59;;;;;;;;;;;6.30;99.90;;;;;;5055268;28;19931;-90
2022/01/24 08:47:36;;;;;;;;;;;5.60;99.90;;;;;;5055292;28;19920;-89
2022/01/24 08:50:04;;;;;;;;;;;5.60;99.90;;;;;;5054407;28;19925;-90
2022/01/24 08:52:30;;;;;;;;;;;5.60;99.90;;;;;;5039592;28;19920;-89
2022/01/24 08:54:55;;;;;;;;;;;6.60;99.90;;;;;;5055438;28;19928;-90
2022/01/24 08:57:25;;;;;;;;;;;6.30;99.90;;;;;;5055271;28;19999;-90
2022/01/24 09:00:00;;;;;;;;;;;5.80;99.90;;;;;;5055072;28;19921;-88
2022/01/24 09:02:26;;;;;;;;;;;5.70;99.90;;;;;;5039095;28;19972;-90
2022/01/24 09:04:51;;;;;;;;;;;6.30;99.90;;;;;;5054584;28;20355;-89
2022/01/24 09:07:19;;;;;;;;;;;5.80;99.90;;;;;;5037439;28;19921;-90
2022/01/24 09:09:45;;;;;;;;;;;5.80;99.90;;;;;;5054378;28;19921;-88
2022/01/24 09:12:12;;;;;;;;;;;6.00;99.90;;;;;;5054281;28;19921;-88
2022/01/24 09:14:43;;;;;;;;;;;5.70;99.90;;;;;;5034705;28;19968;-88
2022/01/24 09:17:09;;;;;;;;;;;5.70;99.90;;;;;;5034609;28;19925;-89
2022/01/24 09:19:35;;;;;;;;;;;6.40;99.90;;;;;;5026829;28;19924;-89
2022/01/24 09:22:00;;;;;;;;;;;5.50;99.90;;;;;;5034798;28;20323;-89
2022/01/24 09:24:26;;;;;;;;;;;6.30;99.90;;;;;;5047401;28;19927;-89
2022/01/24 09:26:54;;;;;;;;;;;5.80;99.90;;;;;;5037357;28;19920;-89
2022/01/24 09:29:20;;;;;;;;;;;5.80;99.90;;;;;;5053788;28;20378;-89
2022/01/24 09:31:46;;;;;;;;;;;6.10;99.90;;;;;;5036957;28;20050;-88
2022/01/24 09:34:14;;;;;;;;;;;6.80;99.90;;;;;;5054207;28;19929;-89
2022/01/24 09:36:39;;;;;;;;;;;5.70;99.90;;;;;;5037516;28;19928;-88
2022/01/24 09:39:05;;;;;;;;;;;5.80;99.90;;;;;;5053643;28;19920;-89
2022/01/24 09:41:31;;;;;;;;;;;6.40;99.90;;;;;;5037110;28;19920;-88
2022/01/24 09:43:56;;;;;;;;;;;5.80;99.90;;;;;;5054004;28;20006;-88
2022/01/24 09:46:22;;;;;;;;;;;5.90;99.90;;;;;;5053862;28;20023;-88
2022/01/24 09:48:48;;;;;;;;;;;6.60;99.90;;;;;;5053903;28;19925;-89
2022/01/24 09:51:14;;;;;;;;;;;5.90;99.90;;;;;;5053579;28;19921;-88
2022/01/24 09:53:39;;;;;;;;;;;5.80;99.90;;;;;;5053501;28;20016;-89
2022/01/24 09:56:05;;;;;;;;;;;5.80;99.90;;;;;;5053570;28;19928;-88
2022/01/24 09:58:32;;;;;;;;;;;6.10;99.90;;;;;;5053708;28;19921;-88
2022/01/24 10:01:00;;;;;;;;;;;5.90;99.90;;;;;;5037015;28;19921;-88
2022/01/24 10:03:26;;;;;;;;;;;6.30;99.90;;;;;;5053933;28;19921;-89
2022/01/24 10:05:53;;;;;;;;;;;5.90;99.90;;;;;;5052975;28;19920;-89
2022/01/24 10:08:20;;;;;;;;;;;6.10;99.90;;;;;;5053630;28;20069;-89
2022/01/24 10:10:48;;;;;;;;;;;6.10;99.90;;;;;;5037126;28;19928;-88
2022/01/24 10:19:04;;;;;;;;;;;5.90;99.90;;;;;;5053939;28;19927;-88
2022/01/24 10:21:29;;;;;;;;;;;5.70;99.90;;;;;;5054216;28;19925;-88
2022/01/24 10:23:56;;;;;;;;;;;6.40;99.90;;;;;;5052788;28;20334;-89
2022/01/24 10:26:24;;;;;;;;;;;6.20;99.90;;;;;;5052720;28;19921;-89
2022/01/24 10:28:49;;;;;;;;;;;5.90;99.90;;;;;;5053647;28;20082;-88
2022/01/24 10:31:21;;;;;;;;;;;6.10;99.90;;;;;;5053742;28;20412;-89
2022/01/24 10:34:05;;;;;;;;;;;5.90;99.90;;;;;;5053432;28;19921;-88
2022/01/24 10:36:36;;;;;;;;;;;5.90;99.90;;;;;;5053324;28;20003;-89
2022/01/24 10:39:12;;;;;;;;;;;5.90;99.90;;;;;;5053049;28;19960;-88
2022/01/24 10:44:26;;;;;;;;;;;5.90;99.90;;;;;;5052884;28;19944;-89
2022/01/24 10:46:51;;;;;;;;;;;6.20;99.90;;;;;;5053123;28;19964;-89
2022/01/24 10:49:30;;;;;;;;;;;6.20;99.90;;;;;;5053071;28;19927;-89
2022/01/24 10:52:07;;;;;;;;;;;5.90;99.90;;;;;;5052865;28;19920;-90
2022/01/24 10:54:32;;;;;;;;;;;5.80;99.90;;;;;;5053340;28;19920;-89
2022/01/24 10:57:01;;;;;;;;;;;5.90;99.90;;;;;;5052569;28;19948;-89
2022/01/24 10:59:27;;;;;;;;;;;6.00;99.90;;;;;;5052524;28;20443;-89
2022/01/24 11:01:53;;;;;;;;;;;5.90;99.90;;;;;;5053152;28;20023;-88
2022/01/24 11:04:20;;;;;;;;;;;6.30;99.90;;;;;;5053830;28;19924;-89
2022/01/24 11:06:49;;;;;;;;;;;6.00;99.90;;;;;;5052910;28;19928;-88
2022/01/24 11:09:24;;;;;;;;;;;6.00;99.90;;;;;;5052775;28;19927;-88
2022/01/24 11:11:50;;;;;;;;;;;6.40;99.90;;;;;;5053184;28;20019;-88
2022/01/24 11:14:20;;;;;;;;;;;6.10;99.90;;;;;;5038037;28;20007;-87
2022/01/24 11:16:46;;;;;;;;;;;6.30;99.90;;;;;;5053686;28;20007;-89
2022/01/24 11:19:18;;;;;;;;;;;6.00;99.90;;;;;;5040356;28;19927;-86
2022/01/24 11:21:45;;;;;;;;;;;6.60;99.90;;;;;;5040314;28;19943;-86
2022/01/24 11:24:16;;;;;;;;;;;5.90;99.90;;;;;;5039890;28;19928;-87
2022/01/24 11:26:42;;;;;;;;;;;6.00;99.90;;;;;;5040191;28;19927;-86
2022/01/24 11:29:08;;;;;;;;;;;5.90;99.90;;;;;;5057351;28;20268;-86
2022/01/24 11:31:38;;;;;;;;;;;5.90;99.90;;;;;;5039438;28;19990;-87
2022/01/24 11:34:08;;;;;;;;;;;5.90;99.90;;;;;;5040518;28;19967;-86
2022/01/24 11:36:38;;;;;;;;;;;6.10;99.90;;;;;;5040443;28;20254;-86
2022/01/24 11:39:04;;;;;;;;;;;6.30;99.90;;;;;;5040115;28;20007;-86
2022/01/24 11:41:35;;;;;;;;;;;6.00;99.90;;;;;;5039933;28;20249;-86
2022/01/24 11:44:16;;;;;;;;;;;6.60;99.90;;;;;;5040247;28;19928;-86
2022/01/24 11:46:48;;;;;;;;;;;5.90;99.90;;;;;;5057286;28;20362;-86
2022/01/24 11:49:23;;;;;;;;;;;6.30;99.90;;;;;;5040426;28;19921;-87
2022/01/24 11:51:59;;;;;;;;;;;5.80;99.90;;;;;;5040591;28;19927;-87
2022/01/24 11:54:43;;;;;;;;;;;5.80;99.90;;;;;;5040245;28;20014;-85
2022/01/24 11:57:14;;;;;;;;;;;5.80;99.90;;;;;;5040367;28;19924;-86
2022/01/24 11:59:40;;;;;;;;;;;5.80;99.90;;;;;;5056640;28;19969;-87
2022/01/24 12:02:12;;;;;;;;;;;6.70;99.90;;;;;;5040520;28;19920;-87
2022/01/24 12:04:48;;;;;;;;;;;5.80;99.90;;;;;;5039645;28;19988;-87
2022/01/24 12:07:18;;;;;;;;;;;5.80;99.90;;;;;;5039207;28;19924;-87
2022/01/24 12:09:44;;;;;;;;;;;5.80;99.90;;;;;;5038756;28;19921;-87
2022/01/24 12:12:34;;;;;;;;;;;5.80;99.90;;;;;;5038988;28;19927;-87
2022/01/24 12:15:00;;;;;;;;;;;5.80;99.90;;;;;;5038838;28;19920;-87
2022/01/24 12:17:48;;;;;;;;;;;5.90;99.90;;;;;;5039190;28;19928;-87
2022/01/24 12:20:32;;;;;;;;;;;5.90;99.90;;;;;;5038766;28;20261;-87
2022/01/24 12:23:16;;;;;;;;;;;5.90;99.90;;;;;;5034264;28;20369;-87
2022/01/24 12:25:49;;;;;;;;;;;5.90;99.90;;;;;;5018524;28;20268;-87
2022/01/24 12:28:15;;;;;;;;;;;5.90;99.90;;;;;;5019242;28;19921;-87
2022/01/24 12:30:59;;;;;;;;;;;5.90;99.90;;;;;;5032509;28;20012;-87
2022/01/24 12:33:33;;;;;;;;;;;5.90;99.90;;;;;;5038479;28;19921;-90
2022/01/24 12:35:59;;;;;;;;;;;5.90;99.90;;;;;;5028980;28;20016;-87
2022/01/24 12:38:24;;;;;;;;;;;6.30;99.90;;;;;;5018827;28;20020;-86
2022/01/24 12:41:12;;;;;;;;;;;6.10;99.90;;;;;;5019451;28;19968;-87
2022/01/24 12:43:53;;;;;;;;;;;5.80;99.90;;;;;;5035200;28;19925;-87
2022/01/24 12:46:22;;;;;;;;;;;5.80;99.90;;;;;;5055150;28;19980;-87
2022/01/24 12:48:49;;;;;;;;;;;5.80;99.90;;;;;;5055421;28;19927;-86
2022/01/24 12:51:16;;;;;;;;;;;5.90;99.90;;;;;;5052295;28;19921;-87
2022/01/24 12:53:42;;;;;;;;;;;5.80;99.90;;;;;;5055414;28;19994;-87
2022/01/24 12:56:07;;;;;;;;;;;6.20;99.90;;;;;;5054086;28;20368;-87
2022/01/24 12:58:37;;;;;;;;;;;5.80;99.90;;;;;;5040731;28;19963;-88
2022/01/24 13:01:22;;;;;;;;;;;5.80;99.90;;;;;;5040224;28;19927;-87
2022/01/24 13:03:57;;;;;;;;;;;5.80;99.90;;;;;;5037639;28;19925;-87
2022/01/24 13:06:23;;;;;;;;;;;5.70;99.90;;;;;;5029711;28;19967;-87
2022/01/24 13:08:56;;;;;;;;;;;6.40;99.90;;;;;;5054809;28;19920;-87
2022/01/24 13:11:28;;;;;;;;;;;5.80;99.90;;;;;;5038025;28;19921;-86
2022/01/24 13:14:00;;;;;;;;;;;5.80;99.90;;;;;;5054737;28;19920;-87
2022/01/24 13:25:05;;;;;;;;;;;5.90;99.90;;;;;;5054634;28;20025;-87
2022/01/24 13:27:35;;;;;;;;;;;5.80;99.90;;;;;;5038010;28;19920;-87
2022/01/24 13:30:03;;;;;;;;;;;5.80;99.90;;;;;;5037690;28;19920;-86
2022/01/24 13:32:47;;;;;;;;;;;5.90;99.90;;;;;;5038002;28;19927;-88
2022/01/24 13:35:14;;;;;;;;;;;5.90;99.90;;;;;;5017772;28;19928;-87
2022/01/24 13:37:39;;;;;;;;;;;5.90;99.90;;;;;;5033866;28;19921;-86
2022/01/24 13:40:05;;;;;;;;;;;5.80;99.90;;;;;;5034417;28;20008;-87
2022/01/24 13:42:35;;;;;;;;;;;5.80;99.90;;;;;;5034076;28;19936;-86
2022/01/24 13:45:00;;;;;;;;;;;5.80;99.90;;;;;;5033523;28;19928;-86
2022/01/24 13:47:31;;;;;;;;;;;5.80;99.90;;;;;;5034093;28;19971;-86
2022/01/24 13:49:57;;;;;;;;;;;5.80;99.90;;;;;;5033774;28;20423;-89
2022/01/24 13:52:27;;;;;;;;;;;5.80;99.90;;;;;;5033904;28;19921;-86
2022/01/24 13:54:53;;;;;;;;;;;5.80;99.90;;;;;;5034038;28;19975;-87
2022/01/24 13:57:19;;;;;;;;;;;5.80;99.90;;;;;;5034111;28;19968;-87
2022/01/24 13:59:44;;;;;;;;;;;5.80;99.90;;;;;;5033869;28;19921;-87
2022/01/24 14:02:12;;;;;;;;;;;5.80;99.90;;;;;;5033717;28;20316;-86
2022/01/24 14:04:37;;;;;;;;;;;5.80;99.90;;;;;;5017579;28;19921;-87
2022/01/24 14:07:04;;;;;;;;;;;5.80;99.90;;;;;;5017537;28;19920;-87
2022/01/24 14:09:32;;;;;;;;;;;5.80;99.90;;;;;;5033787;28;19925;-87
2022/01/24 14:12:00;;;;;;;;;;;5.80;99.90;;;;;;5018175;28;19925;-86
2022/01/24 14:20:17;;;;;;;;;;;5.90;99.90;;;;;;4977263;28;19921;-87
2022/01/24 14:22:49;;;;;;;;;;;5.80;99.90;;;;;;4976725;28;19926;-86
2022/01/24 14:25:17;;;;;;;;;;;5.80;99.90;;;;;;4976089;28;19980;-86
2022/01/24 14:27:48;;;;;;;;;;;6.00;99.90;;;;;;4976793;28;19921;-86
2022/01/24 14:30:15;;;;;;;;;;;5.80;99.90;;;;;;4976697;28;19971;-87
2022/01/24 14:32:57;;;;;;;;;;;5.80;99.90;;;;;;4976744;28;19984;-87
2022/01/24 14:35:23;;;;;;;;;;;5.80;99.90;;;;;;4960973;28;19921;-86
2022/01/24 14:37:50;;;;;;;;;;;5.80;99.90;;;;;;4976412;28;20020;-86
2022/01/24 14:40:44;;;;;;;;;;;5.70;99.90;;;;;;4975894;28;19929;-86
2022/01/24 14:45:54;;;;;;;;;;;5.70;99.90;;;;;;4977240;28;19921;-86
2022/01/24 14:48:20;;;;;;;;;;;5.90;99.90;;;;;;4975641;28;20049;-87
2022/01/24 14:50:46;;;;;;;;;;;5.70;99.90;;;;;;4976004;28;19922;-87
2022/01/24 14:53:15;;;;;;;;;;;5.70;99.90;;;;;;4999377;28;20343;-86
2022/01/24 14:55:41;;;;;;;;;;;5.70;99.90;;;;;;5033303;28;20033;-86
2022/01/24 14:58:06;;;;;;;;;;;6.30;99.90;;;;;;5033117;28;20353;-86
2022/01/24 15:00:32;;;;;;;;;;;5.70;99.90;;;;;;5032804;28;19928;-86
2022/01/24 15:02:58;;;;;;;;;;;5.70;99.90;;;;;;5033148;28;19968;-86
2022/01/24 15:05:23;;;;;;;;;;;5.60;99.90;;;;;;5032754;28;19921;-86
2022/01/24 15:07:49;;;;;;;;;;;6.10;99.90;;;;;;5032167;28;19921;-87
2022/01/24 15:10:15;;;;;;;;;;;5.80;99.90;;;;;;5035919;28;19983;-86
2022/01/24 15:12:48;;;;;;;;;;;5.60;99.90;;;;;;5052785;28;19959;-86
2022/01/24 15:15:17;;;;;;;;;;;5.70;99.90;;;;;;5052787;28;20331;-87
2022/01/24 15:25:49;;;;;;;;;;;5.50;99.90;;;;;;5052175;28;19927;-86
2022/01/24 15:28:17;;;;;;;;;;;5.60;99.90;;;;;;5036503;28;19921;-86
2022/01/24 15:30:43;;;;;;;;;;;5.50;99.90;;;;;;5036186;28;19920;-85
2022/01/24 15:33:09;;;;;;;;;;;5.50;99.90;;;;;;5036082;28;20019;-86
2022/01/24 15:35:35;;;;;;;;;;;5.50;99.90;;;;;;5035995;28;19975;-86
2022/01/24 15:38:04;;;;;;;;;;;5.50;99.90;;;;;;5052418;28;19982;-87
2022/01/24 15:40:31;;;;;;;;;;;5.40;99.90;;;;;;5036188;28;19920;-86
2022/01/24 15:43:54;;;;;;;;;;;5.40;99.90;;;;;;5036333;28;19971;-86
2022/01/24 15:46:13;;;;;;;;;;;5.40;99.90;;;;;;5044660;28;19924;-86
2022/01/24 15:48:38;;;;;;;;;;;5.40;99.90;;;;;;5037096;28;20349;-86
2022/01/24 15:51:05;;;;;;;;;;;5.60;99.90;;;;;;5052697;28;19920;-86
2022/01/24 15:53:30;;;;;;;;;;;5.70;99.90;;;;;;5035909;28;19927;-86
2022/01/24 15:58:40;;;;;;;;;;;5.40;99.90;;;;;;5053926;28;19921;-87
2022/01/24 16:01:06;;;;;;;;;;;5.40;99.90;;;;;;5056347;28;20013;-88
2022/01/24 16:03:31;;;;;;;;;;;5.50;99.90;;;;;;5056473;28;19921;-86
2022/01/24 16:05:57;;;;;;;;;;;5.40;99.90;;;;;;5056568;28;19921;-87
2022/01/24 16:08:23;;;;;;;;;;;5.40;99.90;;;;;;5055956;28;19921;-87
2022/01/24 16:10:48;;;;;;;;;;;5.60;99.90;;;;;;5056020;28;20295;-87
2022/01/24 16:13:14;;;;;;;;;;;6.10;99.90;;;;;;5056101;28;20405;-86
2022/01/24 16:15:41;;;;;;;;;;;5.30;99.90;;;;;;5056062;28;19928;-85
2022/01/24 16:18:11;;;;;;;;;;;5.60;99.90;;;;;;5055682;28;19921;-88
2022/01/24 16:20:51;;;;;;;;;;;5.10;99.90;;;;;;5054263;28;19928;-88
2022/01/24 16:23:22;;;;;;;;;;;5.30;99.90;;;;;;5019057;28;20007;-88
2022/01/24 16:25:51;;;;;;;;;;;5.30;99.90;;;;;;5035142;28;19980;-89
2022/01/24 16:28:23;;;;;;;;;;;5.50;99.90;;;;;;5018783;28;19921;-88
2022/01/24 16:30:51;;;;;;;;;;;5.70;99.90;;;;;;5035809;28;20293;-88
2022/01/24 16:33:24;;;;;;;;;;;5.30;99.90;;;;;;5038553;28;19924;-88